Terminal Aerodrome Forecast
Issued by NWS Wilmington, OH

Current Version | Previous Version | Graphics & Text | Print | Product List | Glossary On
Versions: 1 2 3 4 5 6 7 8 9 10 11 12 13 14 15 16 17 18 19 20 21 22 23
852
FTUS41 KILN 051130
TAFCMH
TAF
KCMH 051130Z 0512/0612 34005KT P6SM SCT040
      TEMPO 0512/0514 BKN020
     FM051400 36010KT P6SM BKN015
     FM051800 36015G21KT P6SM BKN040
     FM060100 35008KT P6SM SCT045=

USA.gov is the U.S. government's official web portal to all federal, state and local government web resources and services.